Time;durP1;ratioP1;P1;durP2;ratioP2;P2;SDS_P1;SDS_P2;PMS_P1;PMS_P2;Temp;Humidity;BMP_temperature;BMP_pressure;BME280_temperature;BME280_humidity;BME280_pressure;Samples;Min_cycle;Max_cycle;Signal;HPM_P1;HPM_P2
2021/09/29 00:01:37;;;;;;;7.47;5.47;;;;;;;8.79;88.11;101914.08;1689181;83;22476;-71
2021/09/29 00:04:12;;;;;;;8.85;5.50;;;;;;;8.76;88.23;101919.83;1694066;83;21415;-71
2021/09/29 00:06:42;;;;;;;8.50;5.65;;;;;;;8.71;88.45;101913.48;1704044;83;21044;-70
2021/09/29 00:09:14;;;;;;;7.72;5.30;;;;;;;8.66;88.54;101913.61;1699991;83;21168;-71
2021/09/29 00:11:42;;;;;;;8.95;5.97;;;;;;;8.60;88.64;101914.45;1698910;83;21032;-71
2021/09/29 00:14:09;;;;;;;10.85;5.45;;;;;;;8.57;88.85;101916.20;1699781;83;21576;-71
2021/09/29 00:16:38;;;;;;;8.40;6.00;;;;;;;8.52;89.09;101916.00;1672860;85;21056;-71
2021/09/29 00:19:05;;;;;;;10.70;5.95;;;;;;;8.47;89.30;101919.81;1671343;84;21087;-72
2021/09/29 00:21:32;;;;;;;7.95;5.55;;;;;;;8.40;89.49;101918.50;1669163;84;21619;-72
2021/09/29 00:24:00;;;;;;;7.65;5.60;;;;;;;8.37;89.72;101916.75;1661316;84;21119;-72
2021/09/29 00:26:27;;;;;;;8.58;5.35;;;;;;;8.33;89.81;101918.20;1674104;84;21344;-72
2021/09/29 00:28:54;;;;;;;10.72;5.90;;;;;;;8.29;89.92;101918.28;1663696;84;21078;-72
2021/09/29 00:31:34;;;;;;;9.70;5.15;;;;;;;8.23;90.06;101920.77;1659803;84;21080;-73
2021/09/29 00:34:06;;;;;;;9.08;5.75;;;;;;;8.18;90.22;101919.23;1690688;82;21091;-73
2021/09/29 00:36:28;;;;;;;9.10;5.40;;;;;;;8.12;90.35;101919.23;1699792;84;21040;-72
2021/09/29 00:38:54;;;;;;;10.20;5.87;;;;;;;8.04;90.48;101916.29;1688871;83;21081;-72
2021/09/29 00:41:23;;;;;;;8.03;5.35;;;;;;;7.99;90.67;101914.75;1701178;84;21649;-73
2021/09/29 00:43:50;;;;;;;9.25;5.67;;;;;;;7.92;90.78;101922.73;1703865;84;22202;-73
2021/09/29 00:46:18;;;;;;;8.40;5.50;;;;;;;7.87;90.89;101921.22;1701244;83;21078;-74
2021/09/29 00:48:45;;;;;;;6.87;5.20;;;;;;;7.82;91.05;101922.84;1699833;83;22596;-73
2021/09/29 00:51:11;;;;;;;8.98;5.10;;;;;;;7.77;91.22;101926.13;1702056;83;21958;-74
2021/09/29 00:53:39;;;;;;;8.43;5.55;;;;;;;7.70;91.37;101920.81;1685503;83;21100;-73
2021/09/29 00:56:06;;;;;;;8.15;5.47;;;;;;;7.66;91.60;101916.09;1706347;84;21566;-73
2021/09/29 00:58:33;;;;;;;9.80;6.25;;;;;;;7.60;91.75;101924.87;1703363;83;21020;-74
2021/09/29 01:01:00;;;;;;;9.65;6.00;;;;;;;7.55;91.91;101927.34;1706781;83;21487;-73
2021/09/29 01:03:26;;;;;;;9.65;5.80;;;;;;;7.51;92.14;101922.94;1702078;83;21158;-73
2021/09/29 01:05:56;;;;;;;8.28;5.42;;;;;;;7.44;92.34;101930.09;1691209;83;21072;-74
2021/09/29 01:08:28;;;;;;;9.48;6.08;;;;;;;7.40;92.49;101924.85;1696218;84;21021;-73
2021/09/29 01:11:25;;;;;;;9.58;6.33;;;;;;;7.36;92.68;101924.95;1707033;83;21088;-74
2021/09/29 01:14:06;;;;;;;9.53;5.37;;;;;;;7.31;92.77;101927.42;1701300;83;21171;-73
2021/09/29 01:16:35;;;;;;;8.30;5.55;;;;;;;7.25;92.92;101936.48;1705092;83;21632;-73
2021/09/29 01:19:04;;;;;;;9.25;6.25;;;;;;;7.24;92.98;101929.55;1698801;83;21020;-74
2021/09/29 01:21:36;;;;;;;8.78;5.45;;;;;;;7.18;93.10;101944.95;1693441;83;21606;-74
2021/09/29 01:24:11;;;;;;;7.95;5.40;;;;;;;7.13;93.24;101945.23;1706475;82;21515;-73
2021/09/29 01:26:40;;;;;;;8.35;5.50;;;;;;;7.08;93.34;101941.05;1704523;83;21039;-73
2021/09/29 01:29:11;;;;;;;9.28;6.60;;;;;;;7.04;93.54;101945.91;1683154;84;21119;-73
2021/09/29 01:31:39;;;;;;;7.15;5.08;;;;;;;7.01;93.72;101945.02;1701576;83;24296;-75
2021/09/29 01:34:08;;;;;;;8.78;5.90;;;;;;;6.97;93.89;101943.23;1696006;84;21559;-75
2021/09/29 01:36:34;;;;;;;6.92;5.22;;;;;;;6.96;93.98;101940.79;1695971;83;21546;-73
2021/09/29 01:39:06;;;;;;;10.72;6.20;;;;;;;6.96;94.08;101943.45;1681040;84;21440;-73
2021/09/29 01:41:32;;;;;;;8.28;5.30;;;;;;;6.94;94.19;101941.48;1690249;84;21072;-73
2021/09/29 01:44:01;;;;;;;8.25;5.40;;;;;;;6.92;94.36;101948.85;1704474;83;21056;-73
2021/09/29 01:46:29;;;;;;;8.75;5.67;;;;;;;6.91;94.44;101951.18;1683412;83;21128;-73
2021/09/29 01:49:26;;;;;;;7.75;5.47;;;;;;;6.89;94.56;101950.58;1677438;85;21540;-74
2021/09/29 01:51:55;;;;;;;7.92;5.55;;;;;;;6.87;94.62;101949.43;1698597;83;21055;-74
2021/09/29 01:54:25;;;;;;;8.73;5.60;;;;;;;6.86;94.70;101944.33;1706295;84;21044;-75
2021/09/29 01:56:52;;;;;;;9.78;6.30;;;;;;;6.85;94.68;101951.48;1698017;82;21064;-75
2021/09/29 01:59:21;;;;;;;7.10;5.42;;;;;;;6.83;94.71;101951.36;1689731;84;21083;-74
2021/09/29 02:01:53;;;;;;;9.00;5.92;;;;;;;6.80;94.79;101955.23;1696048;83;21043;-74
2021/09/29 02:04:20;;;;;;;8.53;5.80;;;;;;;6.78;94.88;101949.31;1702756;84;21024;-74
2021/09/29 02:06:50;;;;;;;8.23;6.20;;;;;;;6.76;94.99;101956.13;1700590;83;21143;-74
2021/09/29 02:09:17;;;;;;;8.68;6.03;;;;;;;6.75;95.09;101957.67;1706085;84;21099;-74
2021/09/29 02:11:44;;;;;;;10.38;6.05;;;;;;;6.74;95.17;101958.66;1693764;83;21072;-74
2021/09/29 02:14:13;;;;;;;10.72;6.70;;;;;;;6.73;95.27;101963.16;1694719;84;21035;-73
2021/09/29 02:16:41;;;;;;;8.00;5.53;;;;;;;6.73;95.41;101958.36;1706842;84;20996;-75
2021/09/29 02:19:09;;;;;;;7.95;5.35;;;;;;;6.73;95.54;101965.81;1701102;83;21058;-75
2021/09/29 02:21:39;;;;;;;7.97;5.33;;;;;;;6.72;95.64;101958.87;1706757;82;21542;-74
2021/09/29 02:24:06;;;;;;;8.40;5.28;;;;;;;6.71;95.77;101963.89;1692999;82;21021;-74
2021/09/29 02:26:34;;;;;;;8.90;5.50;;;;;;;6.71;95.89;101962.55;1751811;80;21162;-74
2021/09/29 02:29:04;;;;;;;7.58;5.20;;;;;;;6.69;95.90;101967.75;1716325;82;21071;-73
2021/09/29 02:31:32;;;;;;;7.50;5.50;;;;;;;6.67;95.96;101971.09;1756501;80;21893;-74
2021/09/29 02:33:59;;;;;;;8.28;4.97;;;;;;;6.65;95.99;101973.95;1699857;82;21015;-73
2021/09/29 02:36:25;;;;;;;7.78;5.03;;;;;;;6.63;96.00;101966.69;1773591;80;21550;-74
2021/09/29 02:38:52;;;;;;;7.72;5.15;;;;;;;6.60;96.03;101972.38;1761285;80;21039;-74
2021/09/29 02:41:19;;;;;;;8.18;5.10;;;;;;;6.59;96.05;101977.39;1739956;80;21959;-74
2021/09/29 02:43:48;;;;;;;7.17;4.55;;;;;;;6.55;96.10;101981.46;1775899;77;20980;-71
2021/09/29 02:46:14;;;;;;;7.03;4.55;;;;;;;6.53;96.13;101987.45;1741151;79;20957;-74
2021/09/29 02:48:41;;;;;;;7.97;4.78;;;;;;;6.49;96.19;101984.89;1772848;80;21074;-73
2021/09/29 02:51:07;;;;;;;7.28;4.35;;;;;;;6.46;96.23;101993.23;1773023;80;21071;-74
2021/09/29 02:53:34;;;;;;;6.78;4.65;;;;;;;6.45;96.33;101992.91;1765533;80;21094;-73
2021/09/29 02:56:03;;;;;;;6.65;4.75;;;;;;;6.42;96.47;101998.63;1745726;80;21118;-74
2021/09/29 02:58:31;;;;;;;7.40;4.65;;;;;;;6.41;96.58;101993.80;1758650;80;21054;-74
2021/09/29 03:00:59;;;;;;;5.30;4.08;;;;;;;6.41;96.67;101997.78;1747490;80;21154;-74
2021/09/29 03:03:27;;;;;;;6.35;4.30;;;;;;;6.40;96.76;102006.77;1756720;80;21439;-73
2021/09/29 03:05:54;;;;;;;5.05;3.92;;;;;;;6.38;96.81;102005.31;1767788;80;21301;-73
2021/09/29 03:08:20;;;;;;;5.45;3.95;;;;;;;6.38;96.87;101996.02;1754611;80;21553;-74
2021/09/29 03:10:49;;;;;;;5.62;4.03;;;;;;;6.37;96.87;101999.19;1773061;80;22094;-73
2021/09/29 03:13:16;;;;;;;5.87;3.92;;;;;;;6.36;96.88;101996.74;1759567;80;21719;-73
2021/09/29 03:15:43;;;;;;;6.05;4.00;;;;;;;6.34;96.85;101996.41;1751048;80;21086;-74
2021/09/29 03:18:10;;;;;;;4.95;3.83;;;;;;;6.34;96.89;102000.90;1756503;80;21569;-74
2021/09/29 03:20:37;;;;;;;5.78;4.20;;;;;;;6.32;96.87;102003.77;1762024;80;21133;-73
2021/09/29 03:23:04;;;;;;;5.58;4.28;;;;;;;6.30;96.91;102012.41;1770821;80;21020;-74
2021/09/29 03:25:30;;;;;;;5.55;4.05;;;;;;;6.28;97.03;102014.42;1765276;80;21083;-73
2021/09/29 03:27:57;;;;;;;4.95;3.60;;;;;;;6.28;97.15;102009.12;1759075;80;20972;-74
2021/09/29 03:30:24;;;;;;;5.92;3.83;;;;;;;6.29;97.23;102012.11;1763268;80;21070;-74
2021/09/29 03:32:51;;;;;;;5.33;4.08;;;;;;;6.29;97.26;102005.47;1746401;80;21142;-75
2021/09/29 03:35:18;;;;;;;5.40;3.90;;;;;;;6.29;97.25;102003.33;1749695;80;21031;-74
2021/09/29 03:37:44;;;;;;;5.90;4.33;;;;;;;6.28;97.20;102010.95;1745114;80;21126;-74
2021/09/29 03:40:14;;;;;;;6.05;4.20;;;;;;;6.27;97.13;102011.98;1755421;80;21539;-73
2021/09/29 03:42:41;;;;;;;6.12;3.95;;;;;;;6.24;97.07;102012.36;1759170;80;21106;-74
2021/09/29 03:45:09;;;;;;;6.42;4.10;;;;;;;6.20;97.04;102013.25;1746194;80;21151;-74
2021/09/29 03:47:36;;;;;;;5.53;3.58;;;;;;;6.18;97.00;102015.27;1751947;80;21054;-74
2021/09/29 03:50:05;;;;;;;4.72;3.70;;;;;;;6.14;96.97;102016.67;1760577;80;21511;-74
2021/09/29 03:52:33;;;;;;;5.47;3.77;;;;;;;6.10;96.96;102022.05;1756879;80;37775;-74
2021/09/29 03:55:00;;;;;;;5.28;3.83;;;;;;;6.06;96.96;102022.94;1760475;80;21597;-74
2021/09/29 03:57:26;;;;;;;6.37;4.42;;;;;;;6.03;97.01;102024.64;1761676;80;21095;-74
2021/09/29 03:59:53;;;;;;;5.45;3.85;;;;;;;6.02;97.07;102022.16;1761030;80;21649;-74
2021/09/29 04:02:20;;;;;;;6.25;3.98;;;;;;;6.03;97.16;102027.30;1745803;80;21039;-74
2021/09/29 04:04:48;;;;;;;7.35;4.28;;;;;;;6.04;97.25;102030.77;1756716;80;21335;-74
2021/09/29 04:07:15;;;;;;;6.35;4.53;;;;;;;6.04;97.28;102026.27;1749890;80;21723;-74
2021/09/29 04:09:42;;;;;;;7.12;4.30;;;;;;;6.05;97.27;102033.72;1747897;80;21105;-74
2021/09/29 04:12:10;;;;;;;6.80;4.40;;;;;;;6.08;97.22;102038.65;1748340;80;21079;-75
2021/09/29 04:14:37;;;;;;;6.25;4.35;;;;;;;6.05;97.23;102031.07;1746855;80;21079;-74
2021/09/29 04:17:06;;;;;;;5.92;3.70;;;;;;;6.04;97.17;102032.09;1747152;80;21656;-75
2021/09/29 04:19:33;;;;;;;5.92;3.60;;;;;;;6.03;97.12;102039.74;1750790;80;21094;-74
2021/09/29 04:22:01;;;;;;;5.85;4.10;;;;;;;6.00;97.08;102042.77;1749222;80;21206;-74
2021/09/29 04:24:29;;;;;;;6.50;3.90;;;;;;;5.99;97.04;102043.28;1748769;80;21067;-75
2021/09/29 04:26:56;;;;;;;5.97;4.25;;;;;;;5.99;97.00;102049.91;1733960;80;21832;-75
2021/09/29 04:29:23;;;;;;;5.85;3.98;;;;;;;5.99;97.01;102050.39;1749882;80;21149;-74
2021/09/29 04:31:50;;;;;;;5.28;4.10;;;;;;;6.02;97.02;102051.34;1749561;80;21385;-75
2021/09/29 04:34:17;;;;;;;8.30;4.33;;;;;;;6.01;97.02;102058.48;1752082;80;21095;-74
2021/09/29 04:36:46;;;;;;;5.97;4.00;;;;;;;6.00;97.03;102058.17;1771082;80;21072;-75
2021/09/29 04:39:15;;;;;;;6.00;4.25;;;;;;;6.03;97.03;102067.09;1757319;80;21070;-74
2021/09/29 04:41:42;;;;;;;6.58;4.28;;;;;;;6.05;97.06;102066.88;1767651;80;21074;-75
2021/09/29 04:44:10;;;;;;;6.28;4.53;;;;;;;6.08;97.05;102067.31;1742312;80;21047;-74
2021/09/29 04:46:38;;;;;;;6.80;4.50;;;;;;;6.10;97.05;102072.45;1735006;82;21071;-75
2021/09/29 04:49:04;;;;;;;6.75;4.80;;;;;;;6.14;97.13;102075.55;1761134;80;21000;-74
2021/09/29 04:51:32;;;;;;;8.15;4.78;;;;;;;6.17;97.12;102075.16;1768865;80;21027;-74
2021/09/29 04:54:00;;;;;;;7.08;5.15;;;;;;;6.21;97.11;102078.56;1765518;80;21039;-75
2021/09/29 04:56:26;;;;;;;5.42;4.28;;;;;;;6.26;97.07;102081.48;1706402;82;21065;-75
2021/09/29 04:58:52;;;;;;;6.10;4.58;;;;;;;6.30;97.04;102075.28;1766724;80;21087;-74
2021/09/29 05:01:21;;;;;;;5.75;4.25;;;;;;;6.34;96.96;102080.52;1768742;80;21035;-74
2021/09/29 05:03:48;;;;;;;6.35;4.87;;;;;;;6.39;96.91;102082.61;1747437;80;21091;-74
2021/09/29 05:06:19;;;;;;;6.22;4.62;;;;;;;6.41;96.84;102081.89;1701746;82;21043;-74
2021/09/29 05:08:50;;;;;;;6.35;4.87;;;;;;;6.46;96.79;102085.62;1755987;80;21575;-74
2021/09/29 05:11:26;;;;;;;5.20;4.37;;;;;;;6.51;96.80;102093.00;1760650;80;21481;-75
2021/09/29 05:13:55;;;;;;;6.65;5.03;;;;;;;6.56;96.74;102090.09;1764220;80;21043;-75
2021/09/29 05:16:23;;;;;;;7.62;4.85;;;;;;;6.62;96.60;102092.49;1743827;80;21106;-76
2021/09/29 05:18:50;;;;;;;6.45;4.62;;;;;;;6.67;96.49;102094.55;1743518;80;21043;-75
2021/09/29 05:21:20;;;;;;;5.33;4.25;;;;;;;6.74;96.39;102098.08;1743603;80;21036;-76
2021/09/29 05:23:47;;;;;;;6.17;5.17;;;;;;;6.78;96.32;102103.34;1702429;82;21369;-74
2021/09/29 05:26:18;;;;;;;5.70;4.70;;;;;;;6.87;96.31;102098.67;1759090;80;21302;-75
2021/09/29 05:28:48;;;;;;;5.75;4.62;;;;;;;6.95;96.23;102103.34;1751962;80;21090;-74
2021/09/29 05:31:18;;;;;;;6.05;4.47;;;;;;;7.06;95.83;102103.30;1767622;80;21054;-76
2021/09/29 05:33:45;;;;;;;5.90;4.87;;;;;;;7.11;95.78;102104.02;1760177;80;21160;-74
2021/09/29 05:36:14;;;;;;;5.50;4.42;;;;;;;7.17;95.58;102102.77;1757219;80;21527;-74
2021/09/29 05:38:45;;;;;;;6.45;4.92;;;;;;;7.24;95.36;102102.80;1757236;80;21079;-75
2021/09/29 05:41:17;;;;;;;6.33;4.65;;;;;;;7.29;94.87;102105.16;1745233;80;21058;-74
2021/09/29 05:43:45;;;;;;;5.72;4.30;;;;;;;7.34;94.81;102101.08;1767219;80;20957;-76
2021/09/29 05:46:15;;;;;;;5.67;4.80;;;;;;;7.41;94.50;102101.95;1756074;80;21033;-75
2021/09/29 05:48:46;;;;;;;5.75;4.22;;;;;;;7.54;94.30;102102.52;1753720;80;21558;-73
2021/09/29 05:51:20;;;;;;;7.15;4.53;;;;;;;7.59;94.18;102104.06;1748667;80;21090;-74
2021/09/29 05:53:55;;;;;;;6.45;4.72;;;;;;;7.66;93.78;102107.05;1746863;80;21425;-74
2021/09/29 05:56:37;;;;;;;6.33;5.20;;;;;;;7.73;93.42;102111.91;1746951;80;21462;-74
2021/09/29 05:59:18;;;;;;;6.05;5.05;;;;;;;8.07;93.00;102104.81;1750372;80;21070;-74
2021/09/29 06:01:48;;;;;;;6.60;4.90;;;;;;;8.99;89.69;102102.38;1762253;80;21669;-75
2021/09/29 06:04:16;;;;;;;5.83;4.80;;;;;;;9.20;88.15;102102.62;1693198;82;21758;-73
2021/09/29 06:06:51;;;;;;;6.12;5.25;;;;;;;8.65;88.55;102103.77;1756108;80;21082;-73
2021/09/29 06:09:29;;;;;;;6.95;6.25;;;;;;;8.29;88.93;102114.79;1759400;80;21098;-74
2021/09/29 06:12:30;;;;;;;7.53;5.90;;;;;;;8.21;88.61;102110.46;1758569;80;21363;-73
2021/09/29 06:14:57;;;;;;;9.13;6.20;;;;;;;8.19;88.59;102107.20;1748632;80;21126;-74
2021/09/29 06:17:25;;;;;;;7.65;6.50;;;;;;;8.19;88.26;102105.02;1752315;80;21064;-74
2021/09/29 06:19:53;;;;;;;8.10;6.87;;;;;;;8.22;88.21;102106.77;1754268;80;21040;-75
2021/09/29 06:22:21;;;;;;;9.58;7.05;;;;;;;8.29;87.96;102112.61;1748541;80;21027;-75
2021/09/29 06:24:48;;;;;;;7.90;6.33;;;;;;;8.33;87.58;102105.88;1752384;80;21092;-76
2021/09/29 06:27:14;;;;;;;7.90;6.30;;;;;;;8.37;87.38;102114.58;1742224;82;21107;-75
2021/09/29 06:29:42;;;;;;;7.58;6.22;;;;;;;8.48;87.23;102114.50;1758711;80;21026;-74
2021/09/29 06:32:10;;;;;;;7.10;5.72;;;;;;;8.58;86.95;102108.77;1752780;80;21095;-75
2021/09/29 06:34:36;;;;;;;6.90;5.05;;;;;;;8.67;86.49;102111.53;1756536;80;21105;-74
2021/09/29 06:39:46;;;;;;;6.80;5.70;;;;;;;8.87;85.85;102118.17;1848025;76;22678;-74
2021/09/29 06:42:12;;;;;;;6.10;5.37;;;;;;;8.99;85.95;102125.85;1815820;78;21034;-75
2021/09/29 06:44:39;;;;;;;6.15;4.75;;;;;;;9.19;85.92;102119.66;1811293;78;20993;-73
2021/09/29 06:47:07;;;;;;;6.53;5.22;;;;;;;9.38;85.24;102116.12;1810368;78;21096;-73
2021/09/29 06:49:36;;;;;;;8.05;5.42;;;;;;;9.53;84.89;102116.66;1809585;77;21017;-73
2021/09/29 06:52:04;;;;;;;7.10;5.37;;;;;;;9.66;84.29;102123.79;1816073;77;21014;-75
2021/09/29 06:54:31;;;;;;;7.05;4.85;;;;;;;9.71;83.20;102120.50;1814335;77;21195;-77
2021/09/29 06:56:58;;;;;;;4.72;3.83;;;;;;;9.65;81.64;102124.02;1809923;77;21772;-77
2021/09/29 06:59:25;;;;;;;6.87;5.10;;;;;;;9.61;81.58;102120.44;1814585;77;21003;-73
2021/09/29 07:01:53;;;;;;;5.70;5.03;;;;;;;9.72;81.50;102122.13;1813045;77;21339;-75
2021/09/29 07:04:20;;;;;;;6.63;5.37;;;;;;;9.81;80.41;102120.34;1812725;77;21369;-75
2021/09/29 07:06:47;;;;;;;7.20;5.03;;;;;;;9.85;79.99;102126.06;1812749;78;21275;-74
2021/09/29 07:09:14;;;;;;;6.53;4.90;;;;;;;9.94;79.57;102125.31;1817660;77;21377;-77
2021/09/29 07:11:43;;;;;;;7.27;4.80;;;;;;;10.04;79.21;102128.33;1815653;77;21626;-76
2021/09/29 07:14:12;;;;;;;6.97;4.60;;;;;;;10.09;77.98;102128.48;1809813;77;21300;-74
2021/09/29 07:16:39;;;;;;;5.85;4.53;;;;;;;10.15;76.69;102126.29;1814945;77;21218;-76
2021/09/29 07:19:06;;;;;;;5.67;4.20;;;;;;;10.20;76.25;102130.98;1809847;77;21095;-77
2021/09/29 07:21:34;;;;;;;8.50;4.57;;;;;;;10.25;75.78;102125.30;1815035;77;21204;-77
2021/09/29 07:24:00;;;;;;;4.93;3.77;;;;;;;10.37;75.97;102124.13;1810952;77;21260;-75
2021/09/29 07:26:27;;;;;;;5.83;4.20;;;;;;;10.46;74.66;102130.84;1815142;77;21318;-74
2021/09/29 07:28:54;;;;;;;4.83;3.60;;;;;;;10.54;73.97;102133.23;1812078;77;21778;-75
2021/09/29 07:31:20;;;;;;;5.23;3.97;;;;;;;10.56;73.44;102125.83;1810462;77;21280;-76
2021/09/29 07:33:48;;;;;;;5.13;4.00;;;;;;;10.62;73.40;102121.97;1811021;77;21183;-79
2021/09/29 07:36:15;;;;;;;4.50;3.37;;;;;;;10.74;73.16;102121.03;1815715;77;21323;-73
2021/09/29 07:38:43;;;;;;;5.23;3.83;;;;;;;10.93;73.28;102116.55;1824991;77;21066;-83
2021/09/29 07:41:11;;;;;;;5.90;3.97;;;;;;;11.14;71.81;102117.97;1816751;77;21328;-78
2021/09/29 07:43:38;;;;;;;5.63;3.90;;;;;;;11.21;70.02;102118.70;1813984;77;21401;-77
2021/09/29 07:46:05;;;;;;;6.10;3.60;;;;;;;11.26;69.33;102120.73;1811430;77;21253;-78
2021/09/29 07:48:31;;;;;;;5.70;3.80;;;;;;;11.37;68.92;102119.16;1809915;77;21287;-78
2021/09/29 07:50:58;;;;;;;4.53;3.40;;;;;;;11.46;67.85;102120.50;1810927;77;21304;-74
2021/09/29 07:53:26;;;;;;;6.00;3.97;;;;;;;11.56;67.34;102119.97;1814302;77;21241;-75
2021/09/29 07:55:54;;;;;;;5.83;3.83;;;;;;;11.67;67.10;102117.86;1781344;77;21345;-73
2021/09/29 07:58:22;;;;;;;5.57;3.80;;;;;;;11.80;67.09;102116.34;1815625;77;21703;-75
2021/09/29 08:00:49;;;;;;;4.20;3.03;;;;;;;11.95;65.81;102122.67;1813340;77;21300;-77
2021/09/29 08:03:16;;;;;;;5.03;2.77;;;;;;;11.96;63.76;102124.30;1813590;77;21835;-76
2021/09/29 08:05:43;;;;;;;4.10;2.90;;;;;;;11.91;63.43;102129.01;1807969;77;21211;-76
2021/09/29 08:08:09;;;;;;;5.17;3.50;;;;;;;11.87;63.09;102129.14;1812150;77;21247;-75
2021/09/29 08:10:38;;;;;;;4.07;2.90;;;;;;;11.77;63.09;102134.19;1806304;78;21720;-75
2021/09/29 08:13:04;;;;;;;3.93;2.57;;;;;;;11.61;62.70;102132.95;1812555;77;21342;-76
2021/09/29 08:15:32;;;;;;;4.13;2.73;;;;;;;11.53;62.75;102128.45;1807333;77;21636;-75
2021/09/29 08:17:59;;;;;;;3.37;2.10;;;;;;;11.53;63.33;102133.27;1807530;77;21649;-77
2021/09/29 08:20:28;;;;;;;3.93;1.93;;;;;;;11.62;61.80;102127.91;1821586;77;21166;-74
2021/09/29 08:23:05;;;;;;;3.17;1.60;;;;;;;11.82;61.61;102126.31;1815388;79;21992;-74
2021/09/29 08:28:19;;;;;;;2.57;1.57;;;;;;;12.57;58.59;102126.34;1815678;79;21369;-74
2021/09/29 08:33:20;;;;;;;3.27;1.50;;;;;;;12.91;54.57;102121.53;1815829;79;21563;-73
2021/09/29 08:35:56;;;;;;;2.30;1.65;;;;;;;12.91;54.57;102121.53;1813544;78;22036;-75
2021/09/29 08:38:29;;;;;;;3.10;2.10;;;;;;;12.93;53.84;102121.81;1798190;77;21015;-73
2021/09/29 08:41:08;;;;;;;2.90;1.90;;;;;;;12.89;54.23;102128.16;1819687;75;21513;-77
2021/09/29 08:43:36;;;;;;;3.77;2.00;;;;;;;12.79;53.49;102122.05;1817289;75;21402;-78
2021/09/29 08:48:35;;;;;;;3.00;1.83;;;;;;;12.42;54.29;102120.10;1846554;77;21844;-77
2021/09/29 08:53:43;;;;;;;3.27;2.17;;;;;;;12.43;53.53;102112.34;1811496;77;21465;-75
2021/09/29 09:15:22;;;;;;;3.67;2.37;;;;;;;12.41;53.50;102114.46;1812201;77;21596;-74
2021/09/29 09:17:38;;;;;;;4.47;2.30;;;;;;;12.31;53.68;102104.31;1781042;77;22229;-73
2021/09/29 09:20:18;;;;;;;2.93;1.97;;;;;;;12.27;53.90;102110.34;1822968;77;22027;-77
2021/09/29 09:22:47;;;;;;;3.20;2.07;;;;;;;12.30;53.98;102105.33;1823055;77;22379;-75
2021/09/29 09:25:14;;;;;;;3.80;2.30;;;;;;;12.35;54.56;102104.66;1820089;77;21619;-80
2021/09/29 09:27:46;;;;;;;3.43;2.13;;;;;;;12.47;55.09;102104.66;1821047;77;22185;-79
2021/09/29 09:30:28;;;;;;;3.57;2.20;;;;;;;12.64;54.93;102110.98;1776703;78;22192;-77
2021/09/29 09:32:57;;;;;;;3.83;2.37;;;;;;;12.70;53.80;102107.38;1778752;78;21589;-78
2021/09/29 09:35:28;;;;;;;3.90;2.17;;;;;;;12.69;54.41;102105.73;1813502;77;21702;-78
2021/09/29 09:38:01;;;;;;;4.17;2.10;;;;;;;12.82;55.56;102108.17;1805540;78;21654;-78
2021/09/29 09:40:29;;;;;;;3.70;2.30;;;;;;;12.82;55.56;102108.17;1815309;77;21710;-78
2021/09/29 09:42:59;;;;;;;3.50;2.40;;;;;;;13.02;54.72;102106.47;1812171;78;21697;-79
2021/09/29 09:45:58;;;;;;;4.53;2.80;;;;;;;13.19;55.00;102111.11;1812903;77;21652;-80
2021/09/29 09:48:22;;;;;;;4.33;2.90;;;;;;;13.31;54.80;102111.41;1797409;77;21741;-79
2021/09/29 09:50:55;;;;;;;4.60;3.37;;;;;;;13.41;53.37;102106.77;1740369;80;21734;-74
2021/09/29 09:53:22;;;;;;;5.50;3.53;;;;;;;13.26;53.15;102109.14;1744216;81;22346;-74
2021/09/29 09:55:50;;;;;;;4.20;2.97;;;;;;;13.08;54.38;102107.40;1754871;80;21752;-76
2021/09/29 09:58:17;;;;;;;4.53;3.40;;;;;;;12.99;55.51;102112.30;1767006;80;21761;-77
2021/09/29 10:00:44;;;;;;;5.10;3.70;;;;;;;12.94;54.35;102110.86;1784520;78;21747;-77
2021/09/29 10:03:14;;;;;;;6.40;3.80;;;;;;;12.85;54.52;102119.78;1775948;79;21695;-77
2021/09/29 10:05:42;;;;;;;4.50;3.27;;;;;;;12.75;55.14;102115.52;1813990;77;21691;-76
2021/09/29 10:08:14;;;;;;;6.43;3.93;;;;;;;12.74;54.75;102115.77;1814562;78;21698;-76
2021/09/29 10:27:21;;;;;;;8.10;3.60;;;;;;;12.40;55.87;102119.02;1799784;79;21670;-76
2021/09/29 10:30:06;;;;;;;5.97;4.17;;;;;;;12.33;56.75;102114.25;1813539;77;21753;-73
2021/09/29 10:32:32;;;;;;;5.23;3.90;;;;;;;12.32;57.77;102119.33;1805986;77;21704;-74
2021/09/29 10:43:53;;;;;;;6.13;4.60;;;;;;;12.48;57.22;102107.13;1810732;77;21639;-73
2021/09/29 10:46:29;;;;;;;5.40;4.30;;;;;;;12.47;57.20;102108.67;1796388;77;21680;-71
2021/09/29 11:03:54;;;;;;;8.00;5.37;;;;;;;13.15;56.91;102098.16;1817533;78;21701;-74
2021/09/29 11:30:29;;;;;;;6.43;4.90;;;;;;;12.99;56.01;102090.84;1795059;77;21724;-76
2021/09/29 11:33:01;;;;;;;11.57;6.00;;;;;;;12.95;57.12;102084.33;1820558;77;21700;-76
2021/09/29 11:35:45;;;;;;;8.93;5.23;;;;;;;12.98;57.31;102081.70;1814631;79;21629;-74
2021/09/29 11:38:28;;;;;;;7.87;5.70;;;;;;;13.05;57.26;102089.09;1814591;77;21875;-75
2021/09/29 12:11:07;;;;;;;7.17;5.50;;;;;;;11.99;60.41;102088.22;1817474;77;21462;-74
2021/09/29 12:13:43;;;;;;;7.63;5.87;;;;;;;11.99;60.41;102088.22;1768425;78;21582;-75
2021/09/29 12:16:12;;;;;;;6.77;5.00;;;;;;;12.00;60.80;102082.62;1815274;77;21627;-75
2021/09/29 12:18:41;;;;;;;5.93;5.07;;;;;;;12.05;61.03;102076.59;1809047;77;21409;-76
2021/09/29 12:21:07;;;;;;;8.50;6.13;;;;;;;12.14;60.72;102080.55;1811285;77;21400;-76
2021/09/29 12:23:34;;;;;;;7.87;5.77;;;;;;;12.14;60.49;102085.41;1815553;79;21470;-75
2021/09/29 12:26:26;;;;;;;8.57;6.43;;;;;;;12.13;60.57;102082.95;1779196;79;21362;-76
2021/09/29 12:34:32;;;;;;;9.07;5.77;;;;;;;11.95;61.60;102086.00;1816061;77;21355;-74
2021/09/29 12:36:55;;;;;;;8.30;6.03;;;;;;;11.92;61.14;102085.64;1813141;77;21444;-74
2021/09/29 12:39:25;;;;;;;9.13;6.43;;;;;;;11.92;61.14;102085.64;1812866;77;21915;-74
2021/09/29 12:41:56;;;;;;;9.40;6.10;;;;;;;11.90;61.69;102083.17;1807924;77;21295;-73
2021/09/29 12:44:22;;;;;;;9.43;6.30;;;;;;;11.90;61.69;102083.17;1769213;80;21429;-74
2021/09/29 12:47:07;;;;;;;8.90;6.40;;;;;;;11.89;61.48;102087.43;1805712;77;21256;-75
2021/09/29 12:49:31;;;;;;;;;;;;;;;11.86;61.62;102083.34;1819769;78;21783;-74
2021/09/29 12:52:06;;;;;;;9.97;6.10;;;;;;;11.84;61.81;102086.76;1815841;79;20196;-72
2021/09/29 12:54:30;;;;;;;7.73;6.20;;;;;;;11.82;61.61;102086.69;1812095;79;21382;-75
2021/09/29 12:56:57;;;;;;;7.50;5.43;;;;;;;11.81;61.32;102083.69;1813637;77;21440;-74
2021/09/29 12:59:23;;;;;;;8.27;5.90;;;;;;;11.83;61.53;102081.09;1824612;77;21297;-73
2021/09/29 13:01:50;;;;;;;8.07;5.97;;;;;;;11.88;61.59;102079.92;1788622;79;21839;-74
2021/09/29 13:04:19;;;;;;;7.93;5.30;;;;;;;11.92;61.42;102084.30;1793815;77;21330;-76
2021/09/29 13:06:45;;;;;;;7.33;5.87;;;;;;;11.97;61.48;102077.72;1815027;77;21258;-73
2021/09/29 13:09:12;;;;;;;8.10;5.87;;;;;;;11.96;60.59;102076.09;1804772;78;21236;-73
2021/09/29 13:11:39;;;;;;;10.40;6.37;;;;;;;11.93;60.21;102080.05;1806016;79;21370;-72
2021/09/29 13:14:05;;;;;;;7.43;5.60;;;;;;;11.91;59.95;102085.33;1811092;77;21320;-73
2021/09/29 13:16:32;;;;;;;8.27;6.17;;;;;;;11.91;59.95;102085.33;1808121;77;21802;-74
2021/09/29 13:19:03;;;;;;;9.03;6.07;;;;;;;11.90;60.23;102081.02;1806160;77;21337;-74
2021/09/29 13:21:36;;;;;;;8.70;5.83;;;;;;;11.94;60.43;102081.70;1797992;78;21292;-73
2021/09/29 13:37:13;;;;;;;9.33;5.97;;;;;;;12.15;61.11;102074.17;1817416;77;21218;-72
2021/09/29 13:39:40;;;;;;;7.07;5.60;;;;;;;12.19;60.64;102071.31;1812395;74;21166;-75
2021/09/29 13:42:07;;;;;;;7.80;5.10;;;;;;;12.20;60.12;102075.62;1806393;77;21247;-73
2021/09/29 13:44:34;;;;;;;7.10;5.27;;;;;;;12.19;60.33;102067.30;1811425;77;21438;-73
2021/09/29 13:47:01;;;;;;;6.73;5.33;;;;;;;12.16;59.17;102068.56;1808560;77;21401;-72
2021/09/29 13:49:28;;;;;;;8.57;6.20;;;;;;;12.16;59.17;102068.56;1802818;78;22626;-74
2021/09/29 13:51:57;;;;;;;7.70;6.07;;;;;;;12.14;59.79;102072.52;1799667;77;21799;-74
2021/09/29 13:54:27;;;;;;;8.20;5.57;;;;;;;12.15;60.32;102076.32;1801818;77;21377;-73
2021/09/29 13:56:59;;;;;;;8.60;5.67;;;;;;;12.15;60.22;102076.84;1800982;77;21385;-75
2021/09/29 13:59:38;;;;;;;9.17;6.20;;;;;;;12.11;59.76;102079.67;1812562;77;21412;-75
2021/09/29 14:29:20;;;;;;;7.20;5.17;;;;;;;11.69;61.96;102089.02;1813603;77;21776;-78
2021/09/29 14:34:14;;;;;;;10.40;6.27;;;;;;;11.68;61.90;102093.56;1817866;77;21389;-77